Time;durP1;ratioP1;P1;durP2;ratioP2;P2;SDS_P1;SDS_P2;PMS_P1;PMS_P2;Temp;Humidity;BMP_temperature;BMP_pressure;BME280_temperature;BME280_humidity;BME280_pressure;Samples;Min_cycle;Max_cycle;Signal;HPM_P1;HPM_P2
2022/06/25 00:00:22;;;;;;;6.32;4.40;;;;;;;23.07;47.46;99077.91;5012001;28;20026;-84
2022/06/25 00:02:47;;;;;;;4.70;4.20;;;;;;;23.67;47.27;99148.97;5011748;28;20505;-83
2022/06/25 00:05:28;;;;;;;5.13;4.45;;;;;;;23.99;47.50;99211.47;5011483;28;20046;-84
2022/06/25 00:07:55;;;;;;;4.60;3.97;;;;;;;23.76;47.46;99185.06;5010543;28;20527;-84
2022/06/25 00:10:22;;;;;;;8.50;4.32;;;;;;;23.55;47.79;99145.78;5011693;28;20467;-84
2022/06/25 00:12:48;;;;;;;4.75;3.70;;;;;;;23.99;47.48;99214.16;5011774;28;20026;-84
2022/06/25 00:15:14;;;;;;;7.55;3.95;;;;;;;23.54;47.85;99150.31;5011799;28;20037;-84
2022/06/25 00:17:39;;;;;;;4.80;4.30;;;;;;;23.78;47.75;99199.09;5011780;28;20109;-84
2022/06/25 00:20:06;;;;;;;5.50;4.07;;;;;;;23.82;48.04;99204.78;5011761;28;20045;-84
2022/06/25 00:22:32;;;;;;;6.43;4.05;;;;;;;23.41;47.95;99146.31;5011938;28;20033;-84
2022/06/25 00:24:57;;;;;;;4.38;3.97;;;;;;;23.97;47.92;99243.31;5011682;28;20407;-84
2022/06/25 00:27:23;;;;;;;6.57;4.30;;;;;;;23.42;48.22;99144.41;5011677;28;20054;-84
2022/06/25 00:29:48;;;;;;;5.28;4.10;;;;;;;23.61;48.14;99182.41;5010453;28;20026;-84
2022/06/25 00:32:14;;;;;;;6.05;4.40;;;;;;;23.83;48.15;99217.97;5015377;28;20049;-84
2022/06/25 00:34:40;;;;;;;5.18;4.00;;;;;;;24.01;48.22;99255.16;5014105;28;20533;-84
2022/06/25 00:37:09;;;;;;;4.85;4.35;;;;;;;23.34;48.29;99172.72;5014111;28;20045;-84
2022/06/25 00:39:35;;;;;;;5.10;4.32;;;;;;;23.75;48.38;99230.09;5015377;28;20029;-84
2022/06/25 00:42:02;;;;;;;5.88;4.38;;;;;;;23.85;48.24;99236.59;5015204;28;20030;-84
2022/06/25 00:44:30;;;;;;;4.68;4.22;;;;;;;23.34;48.22;99161.94;5013708;28;20116;-84
2022/06/25 00:46:57;;;;;;;4.70;4.30;;;;;;;23.86;48.36;99240.91;5015199;28;20113;-84
2022/06/25 00:49:22;;;;;;;6.93;4.93;;;;;;;23.24;48.50;99139.59;5013924;28;20033;-84
2022/06/25 00:51:50;;;;;;;4.78;4.38;;;;;;;23.87;48.79;99231.72;5013869;28;20021;-84
2022/06/25 00:54:17;;;;;;;6.38;4.55;;;;;;;23.28;48.64;99140.66;5014111;28;20022;-84
2022/06/25 00:56:52;;;;;;;6.10;4.60;;;;;;;22.95;48.75;99093.53;5013888;28;20025;-84
2022/06/25 00:59:27;;;;;;;5.22;4.75;;;;;;;23.18;48.97;99146.84;5014876;28;20031;-84
2022/06/25 01:01:52;;;;;;;5.93;4.55;;;;;;;23.20;48.89;99155.47;5014897;28;20037;-84
2022/06/25 01:04:18;;;;;;;8.18;5.05;;;;;;;22.95;48.98;99133.91;5015148;28;20069;-84
2022/06/25 01:06:44;;;;;;;5.05;4.35;;;;;;;23.30;49.04;99225.50;5014909;28;20046;-84
2022/06/25 01:09:09;;;;;;;5.25;4.75;;;;;;;22.74;49.24;99138.44;5015264;28;20034;-84
2022/06/25 01:11:35;;;;;;;5.40;4.90;;;;;;;22.59;49.37;99125.75;5015017;28;20103;-84
2022/06/25 01:14:09;;;;;;;5.88;5.28;;;;;;;22.86;49.52;99175.91;5013414;28;20021;-84
2022/06/25 01:16:35;;;;;;;4.90;4.38;;;;;;;23.34;49.34;99236.56;5013388;28;20033;-84
2022/06/25 01:19:08;;;;;;;6.45;4.88;;;;;;;22.99;49.34;99180.75;5013429;28;20471;-84
2022/06/25 01:21:35;;;;;;;5.25;4.50;;;;;;;23.29;49.40;99229.28;5014764;28;20476;-84
2022/06/25 01:24:02;;;;;;;7.30;4.95;;;;;;;22.89;49.28;99176.16;5015028;28;20109;-84
2022/06/25 01:26:27;;;;;;;6.20;4.82;;;;;;;23.19;49.39;99220.38;5013927;28;20049;-84
2022/06/25 01:28:53;;;;;;;6.75;5.10;;;;;;;23.13;49.63;99243.81;5014823;28;20033;-84
2022/06/25 01:31:18;;;;;;;5.32;4.63;;;;;;;22.37;49.74;99119.81;5014430;28;20026;-83
2022/06/25 01:33:44;;;;;;;6.25;4.45;;;;;;;22.78;49.63;99201.41;5014662;28;20028;-84
2022/06/25 01:36:09;;;;;;;5.85;4.97;;;;;;;22.12;49.84;99080.97;5014440;28;20553;-84
2022/06/25 01:38:35;;;;;;;5.13;4.55;;;;;;;22.57;49.77;99144.06;5013310;28;20477;-84
2022/06/25 01:41:00;;;;;;;6.82;5.22;;;;;;;22.71;49.66;99179.34;5013272;28;20479;-84
2022/06/25 01:43:25;;;;;;;5.22;4.60;;;;;;;22.27;49.70;99107.09;5011837;28;20030;-84
2022/06/25 01:45:51;;;;;;;6.38;4.60;;;;;;;22.90;49.75;99218.16;5014088;28;20025;-84
2022/06/25 01:48:17;;;;;;;5.25;4.63;;;;;;;22.84;49.72;99219.22;5013052;28;20411;-84
2022/06/25 01:50:43;;;;;;;5.85;5.10;;;;;;;22.42;49.92;99176.31;5014155;28;20026;-84
2022/06/25 01:53:09;;;;;;;6.13;4.60;;;;;;;22.78;49.74;99196.84;5014121;28;20060;-84
2022/06/25 01:55:34;;;;;;;4.80;4.32;;;;;;;22.01;49.77;99068.53;5012629;28;20061;-84
2022/06/25 01:58:00;;;;;;;5.22;4.53;;;;;;;21.53;49.75;98989.88;5013794;28;20548;-84
2022/06/25 02:00:28;;;;;;;5.10;4.57;;;;;;;22.22;49.86;99099.03;5012569;28;20034;-84
2022/06/25 02:02:54;;;;;;;6.20;5.00;;;;;;;22.28;49.79;99114.09;5012780;28;20069;-84
2022/06/25 02:05:56;;;;;;;5.53;4.90;;;;;;;22.46;49.76;99150.50;5012669;28;20076;-84
2022/06/25 02:08:09;;;;;;;5.70;5.20;;;;;;;22.74;50.01;99203.84;5013725;28;20026;-84
2022/06/25 02:10:35;;;;;;;9.10;5.18;;;;;;;22.43;50.13;99159.91;5012539;28;20118;-84
2022/06/25 02:13:00;;;;;;;5.30;4.82;;;;;;;22.30;50.22;99149.63;5012310;28;20487;-84
2022/06/25 02:15:26;;;;;;;4.97;4.40;;;;;;;22.41;50.08;99172.81;5012229;28;20072;-84
2022/06/25 02:17:52;;;;;;;5.50;4.88;;;;;;;22.42;50.24;99170.91;5012187;28;20117;-84
2022/06/25 02:20:17;;;;;;;5.68;4.53;;;;;;;22.61;50.16;99220.50;5013362;28;20109;-84
2022/06/25 02:22:43;;;;;;;5.25;4.85;;;;;;;22.35;50.28;99165.78;5013645;28;20041;-84
2022/06/25 02:25:08;;;;;;;5.40;4.90;;;;;;;21.74;50.28;99070.59;5012353;28;20091;-84
2022/06/25 02:27:34;;;;;;;5.10;4.38;;;;;;;22.27;50.42;99155.50;5013718;28;20030;-84
2022/06/25 02:30:00;;;;;;;4.57;4.28;;;;;;;21.80;50.41;99101.78;5013394;28;20030;-84
2022/06/25 02:32:25;;;;;;;5.38;4.75;;;;;;;22.13;50.57;99130.19;5013262;28;20104;-84
2022/06/25 02:34:50;;;;;;;7.22;4.45;;;;;;;22.15;50.49;99138.78;5013433;28;20084;-84
2022/06/25 02:37:16;;;;;;;7.88;4.78;;;;;;;21.68;50.42;99067.06;5012214;28;20107;-84
2022/06/25 02:39:41;;;;;;;7.78;5.10;;;;;;;22.38;50.43;99211.00;5012144;28;20028;-84
2022/06/25 02:42:07;;;;;;;5.93;5.00;;;;;;;22.63;50.33;99229.09;5013338;28;20586;-84
2022/06/25 02:44:32;;;;;;;6.75;4.82;;;;;;;22.29;50.27;99187.53;5013156;28;20037;-84
2022/06/25 02:46:58;;;;;;;6.05;4.72;;;;;;;21.99;50.27;99145.97;5011872;28;20030;-84
2022/06/25 02:49:23;;;;;;;6.05;5.38;;;;;;;22.03;50.25;99154.34;5013179;28;20026;-84
2022/06/25 02:51:49;;;;;;;6.40;5.28;;;;;;;22.02;50.45;99161.56;5011558;28;20034;-84
2022/06/25 02:54:14;;;;;;;7.50;4.65;;;;;;;22.19;50.40;99209.81;5011396;28;20029;-84
2022/06/25 02:59:23;;;;;;;5.80;4.85;;;;;;;21.74;50.44;99161.97;5012728;28;20137;-84
2022/06/25 03:01:49;;;;;;;5.53;5.03;;;;;;;21.66;50.88;99151.69;5011432;28;20515;-84
2022/06/25 03:04:15;;;;;;;5.93;5.25;;;;;;;21.95;50.86;99201.31;5011512;28;20058;-84
2022/06/25 03:06:40;;;;;;;8.15;5.22;;;;;;;21.50;50.73;99131.97;5011276;28;20058;-84
2022/06/25 03:09:06;;;;;;;6.22;5.22;;;;;;;22.31;50.65;99263.41;5011796;28;20030;-84
2022/06/25 03:11:32;;;;;;;6.57;5.03;;;;;;;21.84;50.77;99189.69;5011783;28;20495;-84
2022/06/25 03:13:58;;;;;;;6.72;5.13;;;;;;;21.81;50.91;99232.41;5011607;28;20033;-84
2022/06/25 03:16:23;;;;;;;5.38;4.88;;;;;;;22.15;50.64;99251.72;5016833;28;20037;-84
2022/06/25 03:18:50;;;;;;;5.70;5.20;;;;;;;22.32;50.77;99276.59;5019061;28;20034;-84
2022/06/25 03:21:16;;;;;;;7.57;5.63;;;;;;;21.56;50.70;99153.25;5018142;28;20034;-84
2022/06/25 03:23:42;;;;;;;5.50;5.00;;;;;;;21.95;50.61;99241.63;5012736;28;20030;-84
2022/06/25 03:26:07;;;;;;;5.70;5.18;;;;;;;22.35;50.73;99284.16;5012604;28;20040;-84
2022/06/25 03:28:33;;;;;;;5.68;5.10;;;;;;;21.48;50.75;99172.50;5012701;28;20030;-84
2022/06/25 03:30:58;;;;;;;7.82;5.68;;;;;;;21.66;50.72;99194.69;5011193;28;20037;-84
2022/06/25 03:33:23;;;;;;;7.50;5.20;;;;;;;21.49;50.82;99186.75;5011302;28;20041;-84
2022/06/25 03:35:49;;;;;;;7.97;5.78;;;;;;;21.76;50.97;99233.19;5012810;28;20037;-84
2022/06/25 03:38:15;;;;;;;6.93;5.40;;;;;;;21.77;51.04;99242.88;5012233;28;20048;-84
2022/06/25 03:40:40;;;;;;;6.25;5.60;;;;;;;22.11;51.25;99283.72;5010833;28;20036;-84
2022/06/25 03:43:06;;;;;;;6.32;5.35;;;;;;;22.07;51.37;99300.63;5010954;28;20049;-84
2022/06/25 03:45:31;;;;;;;6.45;5.82;;;;;;;21.85;51.32;99273.81;5010857;28;20104;-84
2022/06/25 03:47:57;;;;;;;6.68;5.43;;;;;;;21.77;51.38;99252.81;5010766;28;20030;-84
2022/06/25 03:50:22;;;;;;;5.35;4.90;;;;;;;21.75;51.49;99263.00;5012286;28;20041;-84
2022/06/25 03:52:50;;;;;;;5.55;5.03;;;;;;;21.51;51.52;99211.47;5016826;28;20029;-84
2022/06/25 03:55:16;;;;;;;6.15;4.88;;;;;;;21.87;51.57;99277.06;5018201;28;20056;-83
2022/06/25 03:57:41;;;;;;;6.30;5.57;;;;;;;21.29;51.47;99184.72;5012276;28;20033;-83
2022/06/25 04:00:08;;;;;;;6.03;5.43;;;;;;;21.24;51.46;99165.88;5011892;28;20470;-84
2022/06/25 04:02:35;;;;;;;5.63;5.13;;;;;;;21.15;51.45;99137.88;5010733;28;20421;-84
2022/06/25 04:05:01;;;;;;;5.95;5.25;;;;;;;22.09;51.56;99285.03;5011146;28;20112;-84
2022/06/25 04:07:27;;;;;;;5.70;5.20;;;;;;;21.41;51.63;99177.28;5012028;28;20040;-84
2022/06/25 04:09:52;;;;;;;6.40;5.45;;;;;;;21.93;51.59;99245.66;5011912;28;20472;-83
2022/06/25 04:12:18;;;;;;;5.57;5.07;;;;;;;21.84;51.36;99237.28;5010661;28;20030;-84
2022/06/25 04:14:44;;;;;;;5.82;5.13;;;;;;;21.91;51.21;99234.34;5010586;28;20037;-84
2022/06/25 04:17:10;;;;;;;7.18;5.00;;;;;;;22.29;51.33;99290.53;5012209;28;20509;-84
2022/06/25 04:19:40;;;;;;;10.63;6.10;;;;;;;22.13;51.34;99254.69;5010403;28;20026;-84
2022/06/25 04:22:12;;;;;;;8.60;5.47;;;;;;;22.45;51.05;99286.06;5010942;28;20068;-84
2022/06/25 04:24:39;;;;;;;6.78;5.88;;;;;;;22.51;50.93;99279.66;5011004;28;20033;-84
2022/06/25 04:27:05;;;;;;;8.10;5.85;;;;;;;22.04;50.96;99218.59;5011087;28;20087;-84
2022/06/25 04:29:31;;;;;;;15.23;6.38;;;;;;;22.30;50.69;99264.47;5010583;28;20033;-84
2022/06/25 04:31:57;;;;;;;7.63;5.45;;;;;;;22.60;50.73;99290.72;5011843;28;20041;-84
2022/06/25 04:34:24;;;;;;;6.43;5.70;;;;;;;22.65;50.67;99288.03;5011397;28;20034;-84
2022/06/25 04:36:49;;;;;;;5.68;5.18;;;;;;;22.35;50.71;99257.25;5010126;28;20419;-84
2022/06/25 04:39:15;;;;;;;6.45;5.10;;;;;;;22.48;50.56;99283.66;5011222;28;20030;-84
2022/06/25 04:41:41;;;;;;;5.85;5.30;;;;;;;21.88;50.46;99150.47;5011224;28;20041;-84
2022/06/25 04:44:06;;;;;;;6.50;4.88;;;;;;;22.19;50.22;99199.03;5011200;28;20030;-84
2022/06/25 04:46:32;;;;;;;7.63;4.88;;;;;;;22.75;50.33;99288.88;5011420;28;20105;-84
2022/06/25 04:48:58;;;;;;;5.30;4.80;;;;;;;22.82;50.00;99283.28;5011426;28;20028;-84
2022/06/25 04:51:28;;;;;;;6.68;5.20;;;;;;;22.83;49.92;99280.34;5011253;28;20411;-84
2022/06/25 04:53:56;;;;;;;5.28;4.78;;;;;;;22.90;49.83;99279.28;5010238;28;20533;-84
2022/06/25 04:56:29;;;;;;;6.55;4.70;;;;;;;22.95;50.07;99263.94;5011256;28;20030;-84
2022/06/25 04:58:56;;;;;;;5.85;5.05;;;;;;;22.72;49.92;99221.31;5011215;28;20034;-84
2022/06/25 05:01:22;;;;;;;7.13;4.88;;;;;;;22.96;50.05;99254.78;5010078;28;20396;-84
2022/06/25 05:03:47;;;;;;;5.25;4.75;;;;;;;22.93;50.00;99238.38;5011327;28;20037;-84
2022/06/25 05:06:14;;;;;;;5.97;4.78;;;;;;;22.54;49.90;99168.00;5011312;28;20057;-84
2022/06/25 05:08:40;;;;;;;5.65;4.57;;;;;;;23.19;49.72;99272.38;5011311;28;20094;-84
2022/06/25 05:11:06;;;;;;;5.05;4.55;;;;;;;22.99;49.94;99221.13;5011284;28;20489;-84
2022/06/25 05:13:32;;;;;;;4.63;4.22;;;;;;;23.30;49.65;99267.81;5011500;28;20030;-84
2022/06/25 05:15:57;;;;;;;4.97;4.57;;;;;;;22.89;49.68;99204.97;5010229;28;20030;-84
2022/06/25 05:18:23;;;;;;;5.25;4.57;;;;;;;22.94;49.72;99224.63;5014941;28;20387;-84
2022/06/25 05:20:48;;;;;;;5.95;4.93;;;;;;;23.32;49.84;99271.03;5013744;28;20030;-84
2022/06/25 05:23:14;;;;;;;5.30;4.80;;;;;;;22.60;49.95;99202.72;5014795;28;20418;-84
2022/06/25 05:25:40;;;;;;;5.30;4.40;;;;;;;23.09;49.59;99242.72;5013285;28;20495;-84
2022/06/25 05:28:07;;;;;;;4.97;4.53;;;;;;;22.68;49.62;99145.69;5014556;28;20029;-84
2022/06/25 05:30:33;;;;;;;5.43;4.68;;;;;;;22.86;49.17;99157.06;5014809;28;20033;-84
2022/06/25 05:32:59;;;;;;;4.60;4.20;;;;;;;23.29;48.90;99228.47;5014431;28;20487;-84
2022/06/25 05:35:25;;;;;;;8.70;4.45;;;;;;;23.69;48.67;99276.19;5013332;28;20419;-84
2022/06/25 05:37:50;;;;;;;5.68;3.92;;;;;;;23.44;48.36;99250.03;5014736;28;20026;-83
2022/06/25 05:40:16;;;;;;;4.93;3.95;;;;;;;23.83;48.20;99285.38;5013256;28;20033;-83
2022/06/25 05:42:41;;;;;;;4.40;4.03;;;;;;;23.15;48.12;99177.03;5013184;28;20030;-83
2022/06/25 05:45:07;;;;;;;4.45;4.05;;;;;;;23.57;48.09;99221.75;5013404;28;20040;-84
2022/06/25 05:47:33;;;;;;;5.13;4.55;;;;;;;24.04;48.21;99299.66;5014670;28;20026;-83
2022/06/25 05:49:58;;;;;;;6.43;4.68;;;;;;;23.54;48.13;99224.97;5014551;28;20508;-83
2022/06/25 05:52:24;;;;;;;5.32;4.28;;;;;;;23.93;48.04;99265.69;5013990;28;20109;-83
2022/06/25 05:54:49;;;;;;;6.05;4.45;;;;;;;23.69;47.79;99223.09;5014249;28;20029;-83
2022/06/25 05:57:15;;;;;;;4.10;3.80;;;;;;;23.61;47.51;99203.97;5014028;28;20117;-83
2022/06/25 05:59:40;;;;;;;4.28;3.88;;;;;;;23.81;47.43;99230.94;5012939;28;20476;-83
2022/06/25 06:02:06;;;;;;;6.43;4.45;;;;;;;23.99;47.48;99237.63;5014502;28;20029;-84
2022/06/25 06:04:32;;;;;;;5.55;4.25;;;;;;;23.85;47.18;99232.00;5013935;28;20061;-84
2022/06/25 06:06:59;;;;;;;4.25;3.55;;;;;;;24.23;47.29;99262.94;5014153;28;20034;-83
2022/06/25 06:09:27;;;;;;;5.32;3.97;;;;;;;24.34;47.29;99271.84;5012338;28;20509;-83
2022/06/25 06:11:54;;;;;;;5.75;3.67;;;;;;;24.52;47.05;99283.91;5012228;28;20029;-84
2022/06/25 06:14:19;;;;;;;8.32;4.57;;;;;;;24.41;46.92;99248.06;5012606;28;20030;-83
2022/06/25 06:16:45;;;;;;;4.47;4.07;;;;;;;23.66;46.92;99125.78;5014066;28;20026;-84
2022/06/25 06:19:10;;;;;;;5.78;4.50;;;;;;;24.43;46.77;99239.69;5013516;28;20026;-83
2022/06/25 06:21:36;;;;;;;9.65;4.57;;;;;;;24.75;46.88;99298.69;5013924;28;20482;-83
2022/06/25 06:24:01;;;;;;;5.70;4.18;;;;;;;24.38;46.38;99230.53;5012486;28;20113;-83
2022/06/25 06:26:26;;;;;;;7.20;3.90;;;;;;;24.49;46.50;99207.00;5012266;28;20117;-84
2022/06/25 06:28:52;;;;;;;4.68;4.18;;;;;;;24.59;46.13;99211.56;5012952;28;20510;-84
2022/06/25 06:31:17;;;;;;;7.22;4.65;;;;;;;24.21;46.39;99145.59;5012172;28;20121;-83
2022/06/25 06:33:43;;;;;;;5.57;4.15;;;;;;;24.61;46.35;99212.09;5013465;28;20025;-83
2022/06/25 06:36:08;;;;;;;4.10;3.50;;;;;;;24.57;46.12;99187.56;5013399;28;20099;-84
2022/06/25 06:38:33;;;;;;;6.35;3.67;;;;;;;24.82;45.63;99208.19;5013238;28;20501;-84
2022/06/25 06:40:59;;;;;;;4.95;3.80;;;;;;;24.64;45.76;99166.47;5013312;28;20045;-83
2022/06/25 06:43:24;;;;;;;4.95;3.70;;;;;;;25.51;45.41;99282.88;5013094;28;20107;-83
2022/06/25 06:45:50;;;;;;;4.38;3.97;;;;;;;25.41;45.22;99269.44;5011878;28;20120;-83
2022/06/25 06:48:15;;;;;;;3.80;3.40;;;;;;;25.28;44.80;99226.84;5012999;28;20026;-84
2022/06/25 06:50:41;;;;;;;4.63;3.97;;;;;;;25.62;45.06;99297.94;5013038;28;20029;-83
2022/06/25 06:53:07;;;;;;;5.13;3.47;;;;;;;25.84;44.71;99305.63;5011746;28;20084;-84
2022/06/25 06:55:32;;;;;;;4.65;4.03;;;;;;;25.79;44.74;99280.53;5011505;28;20038;-84
2022/06/25 06:57:58;;;;;;;7.10;5.07;;;;;;;25.90;44.71;99277.44;5012737;28;20025;-84
2022/06/25 07:00:23;;;;;;;6.75;5.15;;;;;;;25.64;44.77;99222.75;5012661;28;20026;-84
2022/06/25 07:02:49;;;;;;;4.63;4.20;;;;;;;24.91;44.72;99095.78;5011663;28;20474;-84
2022/06/25 07:05:14;;;;;;;5.10;4.60;;;;;;;25.54;44.31;99181.50;5012847;28;20489;-84
2022/06/25 07:07:39;;;;;;;3.70;3.40;;;;;;;26.01;44.05;99242.16;5011537;28;20418;-84
2022/06/25 07:10:05;;;;;;;4.90;4.00;;;;;;;26.09;43.74;99260.50;5012671;28;20022;-85
2022/06/25 07:12:31;;;;;;;5.70;4.18;;;;;;;26.19;43.79;99247.69;5011453;28;20021;-84
2022/06/25 07:14:57;;;;;;;4.82;4.00;;;;;;;26.46;43.52;99279.63;5012640;28;20029;-84
2022/06/25 07:17:22;;;;;;;5.22;4.43;;;;;;;26.25;43.62;99262.75;5012458;28;20435;-84
2022/06/25 07:19:47;;;;;;;5.30;3.90;;;;;;;25.45;43.58;99107.50;5012577;28;20095;-85
2022/06/25 07:22:13;;;;;;;4.80;4.10;;;;;;;25.81;43.41;99181.78;5012427;28;20052;-84
2022/06/25 07:24:38;;;;;;;5.18;4.70;;;;;;;26.62;43.33;99265.88;5012457;28;20018;-85
2022/06/25 07:27:04;;;;;;;4.30;3.90;;;;;;;26.66;43.32;99250.66;5012454;28;20030;-84
2022/06/25 07:29:29;;;;;;;4.15;3.75;;;;;;;25.39;43.41;99041.09;5012295;28;20056;-84
2022/06/25 07:31:56;;;;;;;5.40;4.15;;;;;;;26.57;43.46;99226.94;5010880;28;20029;-84
2022/06/25 07:34:22;;;;;;;4.60;3.70;;;;;;;27.06;43.07;99288.09;5012144;28;20475;-84
2022/06/25 07:36:47;;;;;;;6.82;4.63;;;;;;;26.79;42.72;99233.72;5010906;28;20036;-84
2022/06/25 07:39:12;;;;;;;6.85;4.07;;;;;;;26.51;42.56;99195.63;5010394;28;20092;-84
2022/06/25 07:41:38;;;;;;;5.18;4.00;;;;;;;26.71;42.57;99207.28;5011394;28;20064;-84
2022/06/25 07:44:03;;;;;;;4.50;4.10;;;;;;;27.11;42.44;99255.50;5012030;28;20025;-85
2022/06/25 07:46:29;;;;;;;5.80;4.20;;;;;;;26.86;42.47;99217.91;5010924;28;20121;-84
2022/06/25 07:48:55;;;;;;;4.10;3.70;;;;;;;26.93;42.25;99202.09;5010789;28;20026;-85
2022/06/25 07:54:04;;;;;;;7.38;4.13;;;;;;;26.97;42.18;99215.88;5012614;28;20104;-84
2022/06/25 07:56:30;;;;;;;4.25;3.83;;;;;;;27.33;42.18;99263.03;5011196;28;20026;-85
2022/06/25 07:58:56;;;;;;;6.25;4.03;;;;;;;27.18;41.75;99245.09;5011561;28;20484;-83
2022/06/25 08:01:21;;;;;;;7.13;4.40;;;;;;;27.47;42.03;99285.59;5012164;28;20041;-84
2022/06/25 08:03:47;;;;;;;6.22;4.25;;;;;;;27.03;41.66;99191.13;5011809;28;20025;-84
2022/06/25 08:06:12;;;;;;;4.60;3.90;;;;;;;27.10;41.60;99205.13;5011424;28;20053;-84
2022/06/25 08:08:39;;;;;;;6.93;3.80;;;;;;;27.13;40.85;99199.09;5010150;28;20030;-84
2022/06/25 08:11:05;;;;;;;5.57;3.65;;;;;;;27.76;40.75;99276.50;5010148;28;20030;-84
2022/06/25 08:13:30;;;;;;;10.55;7.82;;;;;;;27.35;40.85;99195.78;5011509;28;20471;-84
2022/06/25 08:15:56;;;;;;;5.63;4.25;;;;;;;27.76;39.98;99244.75;5010277;28;20485;-84
2022/06/25 08:18:22;;;;;;;4.68;4.25;;;;;;;27.52;40.16;99208.81;5010091;28;20030;-84
2022/06/25 08:20:49;;;;;;;5.70;4.28;;;;;;;27.90;40.71;99269.19;5010173;28;20036;-84
2022/06/25 08:23:15;;;;;;;4.38;3.97;;;;;;;27.97;40.93;99274.22;5011458;28;20483;-84
2022/06/25 08:25:40;;;;;;;5.30;4.30;;;;;;;28.01;41.24;99295.03;5009872;28;20117;-85
2022/06/25 08:28:06;;;;;;;16.25;9.55;;;;;;;27.66;41.42;99234.06;5010352;28;20086;-85
2022/06/25 08:30:31;;;;;;;5.70;5.20;;;;;;;27.99;41.98;99272.03;5012304;28;20022;-84
2022/06/25 08:32:57;;;;;;;14.68;9.77;;;;;;;27.45;42.54;99189.38;5012448;28;20030;-84
2022/06/25 08:35:23;;;;;;;8.93;6.60;;;;;;;27.62;42.68;99219.50;5010552;28;20026;-85
2022/06/25 08:37:50;;;;;;;9.65;7.43;;;;;;;28.03;42.33;99252.13;5010040;28;20406;-84
2022/06/25 08:40:20;;;;;;;7.07;5.82;;;;;;;28.42;42.00;99275.34;5009915;28;20388;-84
2022/06/25 08:42:48;;;;;;;7.80;5.68;;;;;;;28.27;41.99;99222.13;5011169;28;20030;-84
2022/06/25 08:45:15;;;;;;;8.90;5.65;;;;;;;28.26;41.73;99189.84;5011573;28;20501;-84
2022/06/25 08:47:49;;;;;;;6.20;5.45;;;;;;;28.87;41.48;99279.03;5011381;28;20030;-84
2022/06/25 08:50:16;;;;;;;12.80;8.80;;;;;;;28.89;41.64;99276.81;5011475;28;20037;-84
2022/06/25 08:52:49;;;;;;;6.80;6.15;;;;;;;29.00;41.68;99270.06;5013065;28;20029;-84
2022/06/25 08:55:47;;;;;;;17.30;12.05;;;;;;;29.10;41.63;99263.59;5015656;28;20107;-84
2022/06/25 08:58:13;;;;;;;8.65;6.40;;;;;;;27.23;40.99;98967.75;5014481;28;20042;-83
2022/06/25 09:00:42;;;;;;;10.85;8.73;;;;;;;29.29;40.87;99266.16;5014836;28;20091;-84
2022/06/25 09:03:08;;;;;;;6.80;5.57;;;;;;;28.71;40.79;99175.28;5013535;28;20415;-84
2022/06/25 09:05:37;;;;;;;6.97;5.70;;;;;;;28.98;40.95;99215.19;5013446;28;20085;-84
2022/06/25 09:08:05;;;;;;;7.80;6.13;;;;;;;28.68;40.36;99150.63;5013335;28;20411;-84
2022/06/25 09:10:32;;;;;;;7.72;5.65;;;;;;;29.63;40.14;99271.06;5014683;28;20510;-84
2022/06/25 09:13:03;;;;;;;5.47;4.93;;;;;;;29.66;39.62;99263.09;5013300;28;20026;-84
2022/06/25 09:15:33;;;;;;;9.45;5.15;;;;;;;29.92;39.39;99273.34;5014874;28;20030;-84
2022/06/25 09:18:09;;;;;;;4.97;4.57;;;;;;;30.10;38.48;99271.53;5013252;28;20029;-84
2022/06/25 09:20:36;;;;;;;6.55;4.07;;;;;;;29.95;38.18;99212.84;5014517;28;20105;-84
2022/06/25 09:23:06;;;;;;;5.68;4.47;;;;;;;30.27;37.62;99214.41;5014355;28;20506;-84
2022/06/25 09:25:33;;;;;;;6.55;4.10;;;;;;;30.76;37.23;99256.09;5013138;28;20026;-81
2022/06/25 09:27:59;;;;;;;4.78;4.32;;;;;;;29.94;36.97;99126.84;5014426;28;20495;-84
2022/06/25 09:30:27;;;;;;;6.85;4.75;;;;;;;30.97;36.77;99255.16;5014228;28;20032;-83
2022/06/25 09:32:58;;;;;;;5.82;4.50;;;;;;;30.57;36.31;99177.34;5013981;28;20026;-83
2022/06/25 09:35:34;;;;;;;;;;;;;;;31.06;36.38;99251.63;5013523;28;20414;-83
2022/06/25 09:38:11;;;;;;;4.47;3.92;;;;;;;31.32;36.22;99252.50;5014131;28;20375;-84
2022/06/25 09:40:38;;;;;;;5.47;4.53;;;;;;;31.07;36.09;99204.16;5014126;28;20490;-84
2022/06/25 09:43:12;;;;;;;6.55;4.10;;;;;;;31.47;35.92;99252.00;5014047;28;20018;-83
2022/06/25 09:45:38;;;;;;;7.43;4.47;;;;;;;31.47;35.53;99218.44;5012871;28;20064;-83
2022/06/25 09:48:07;;;;;;;4.70;4.30;;;;;;;31.37;35.12;99164.22;5012904;28;20034;-83
2022/06/25 09:50:32;;;;;;;5.45;3.80;;;;;;;31.20;34.78;99124.91;5014153;28;20037;-83
2022/06/25 09:52:59;;;;;;;4.40;3.80;;;;;;;32.12;34.15;99250.91;5014405;28;20032;-83
2022/06/25 09:55:31;;;;;;;4.22;3.47;;;;;;;32.17;33.57;99247.19;5011488;28;20057;-84
2022/06/25 09:57:59;;;;;;;4.22;3.92;;;;;;;31.65;33.41;99153.69;5013901;28;20022;-83
2022/06/25 10:00:25;;;;;;;5.20;4.10;;;;;;;32.10;33.28;99216.84;5013808;28;20025;-83
2022/06/25 10:02:51;;;;;;;7.07;3.85;;;;;;;32.55;32.68;99238.97;5028236;28;20080;-84
2022/06/25 10:05:18;;;;;;;4.15;3.30;;;;;;;32.33;31.67;99177.22;5013732;28;20052;-82
2022/06/25 10:08:00;;;;;;;4.43;3.30;;;;;;;32.93;31.17;99221.72;5012537;28;20025;-82
2022/06/25 10:10:28;;;;;;;3.22;2.90;;;;;;;31.74;30.76;99023.47;5014052;28;20032;-82
2022/06/25 10:12:54;;;;;;;7.32;3.35;;;;;;;33.25;30.51;99222.88;5013818;28;20083;-82
2022/06/25 10:15:23;;;;;;;3.10;2.80;;;;;;;33.41;29.58;99224.69;5013783;28;20064;-81
2022/06/25 10:17:51;;;;;;;3.22;2.92;;;;;;;33.17;29.34;99178.06;5013566;28;20033;-82
2022/06/25 10:20:18;;;;;;;4.03;3.47;;;;;;;33.29;29.61;99177.28;5012248;28;20080;-82
2022/06/25 10:22:45;;;;;;;5.35;3.20;;;;;;;33.70;29.25;99228.44;5013791;28;20026;-82
2022/06/25 10:25:17;;;;;;;4.65;3.22;;;;;;;34.04;29.00;99254.66;5013722;28;20026;-82
2022/06/25 10:27:47;;;;;;;3.53;3.22;;;;;;;34.20;28.61;99230.94;5028715;28;20076;-82
2022/06/25 10:30:15;;;;;;;5.68;3.50;;;;;;;34.32;28.89;99227.41;5012051;28;20026;-83
2022/06/25 10:32:46;;;;;;;3.53;2.75;;;;;;;34.07;28.45;99194.50;5013109;28;20029;-82
2022/06/25 10:35:44;;;;;;;4.85;3.05;;;;;;;34.36;27.46;99209.16;5013298;28;20094;-82
2022/06/25 10:38:16;;;;;;;3.38;2.55;;;;;;;34.66;27.38;99239.84;5033672;28;20030;-84
2022/06/25 10:40:57;;;;;;;3.92;2.90;;;;;;;34.33;27.68;99175.00;5012149;28;20057;-83
2022/06/25 10:43:40;;;;;;;3.47;3.17;;;;;;;34.77;26.76;99234.69;5013557;28;20028;-83
2022/06/25 10:46:28;;;;;;;3.28;2.80;;;;;;;34.82;27.03;99231.69;5028570;28;20030;-83
2022/06/25 10:49:04;;;;;;;3.65;3.00;;;;;;;34.94;27.13;99232.53;5013498;28;20426;-82
2022/06/25 10:51:32;;;;;;;4.82;2.92;;;;;;;35.07;26.33;99235.22;5013512;28;20076;-83
2022/06/25 10:54:00;;;;;;;4.00;2.95;;;;;;;34.46;26.38;99147.59;5012014;28;20024;-83
2022/06/25 10:56:26;;;;;;;3.15;2.55;;;;;;;34.79;26.32;99174.78;5011798;28;20465;-84
2022/06/25 10:58:52;;;;;;;5.07;3.00;;;;;;;35.35;25.66;99234.13;5011681;28;20030;-83
2022/06/25 11:01:23;;;;;;;4.10;3.13;;;;;;;34.30;26.27;99084.44;5012895;28;20022;-84
2022/06/25 11:03:58;;;;;;;4.50;3.28;;;;;;;35.16;25.70;99203.75;5011649;28;20026;-83
2022/06/25 11:06:35;;;;;;;4.18;2.90;;;;;;;35.19;25.55;99208.53;5012782;28;20061;-83
2022/06/25 11:09:13;;;;;;;4.43;2.97;;;;;;;35.50;25.78;99220.78;5012660;28;20105;-83
2022/06/25 11:11:40;;;;;;;2.92;2.53;;;;;;;35.66;25.32;99227.09;5011311;28;20033;-83
2022/06/25 11:14:22;;;;;;;3.30;2.60;;;;;;;35.50;25.06;99201.53;5012443;28;20048;-84
2022/06/25 11:16:49;;;;;;;3.40;2.85;;;;;;;35.80;25.14;99227.47;5012509;28;20018;-83
2022/06/25 11:19:15;;;;;;;4.68;2.80;;;;;;;35.56;24.83;99164.44;5012446;28;20026;-83
2022/06/25 11:21:43;;;;;;;2.97;2.40;;;;;;;35.91;24.56;99198.34;5012771;28;20044;-84
2022/06/25 11:24:11;;;;;;;4.53;2.47;;;;;;;35.80;24.11;99161.53;5011401;28;20030;-83
2022/06/25 11:29:24;;;;;;;3.60;2.70;;;;;;;36.47;24.05;99217.41;5012785;28;20561;-84
2022/06/25 11:31:51;;;;;;;3.25;2.70;;;;;;;36.41;24.14;99202.31;5012168;28;20026;-83
2022/06/25 11:34:19;;;;;;;3.40;2.75;;;;;;;36.18;24.39;99173.84;5012124;28;20112;-83
2022/06/25 11:36:54;;;;;;;2.78;2.58;;;;;;;36.20;24.40;99157.78;5011992;28;20030;-83
2022/06/25 11:39:19;;;;;;;3.85;2.83;;;;;;;36.53;24.15;99228.91;5012053;28;20483;-82
2022/06/25 11:41:50;;;;;;;3.38;2.20;;;;;;;36.52;22.88;99206.13;5027282;28;20028;-83